Portada
METAR-TAF:

METAR-TAF

Aeropuertos :

Aeropuerto Internacional de Kuwait

Ciudad de Kuwait, Kuwait

latitud: 29-13N, longitud: 047-59E, altitud: 55 m

Observación

El informe se hizo hace 21 minutos, a las 20:00 UTC
Viento 7 kt del norte
Temperatura 18°C
Humedad 26%
Presión 1020 hPa
Visibilidad 10 km o más
sin nubes por debajo de 1500 m y sin presencia de cumulonimbus.

METAR: OKBK 182000Z 36007KT CAVOK 18/M02 Q1020 NOSIG

Hora: 23:21 (20:21 UTC)

Pronóstico

El informe se hizo hace 3 horas y 36 minutos, a las 16:45 UTC
Pronóstico válido del 18 a las 18 UTC al 19 a las 24 UTC
Viento 10 kt del norte-noroeste
Visibilidad: 7000 m
Cielo despejado

TAF: OKBK 181645Z 1818/1924 34010KT 7000 SKC

Observaciones y pronósticos meteorológicos de más de 4000 aeropuertos (mensajes METAR y TAF).

Los puntos amarillos y rojos representan las estaciones disponibles.

Ponga el ratón en el punto deseado para ver el nombre de la estación.

Haga clic para ver las observaciones y los pronósticos meteorológicos.

Para cambiar el mapa : haga clic en los botones verdes con una cruz de color negro para hacer un zoom, en el botón verde con un guión para alejar o en las flechas verdes para mapas adyacentes.


METAR-TAF: